Time;durP1;ratioP1;P1;durP2;ratioP2;P2;SDS_P1;SDS_P2;PMS_P1;PMS_P2;Temp;Humidity;BMP_temperature;BMP_pressure;BME280_temperature;BME280_humidity;BME280_pressure;Samples;Min_cycle;Max_cycle;Signal;HPM_P1;HPM_P2
2022/10/16 00:01:24;;;;;;;8.13;2.13;;;12.30;99.90;;;;;;4995286;28;20100;-75
2022/10/16 00:03:50;;;;;;;12.30;2.20;;;12.20;99.90;;;;;;4995375;28;20065;-73
2022/10/16 00:06:18;;;;;;;13.68;2.60;;;12.60;99.90;;;;;;4995273;28;20509;-73
2022/10/16 00:08:44;;;;;;;7.55;2.45;;;12.30;99.90;;;;;;4994383;28;20057;-73
2022/10/16 00:11:14;;;;;;;;;;;12.20;99.90;;;;;;4995521;28;20094;-74
2022/10/16 00:13:41;;;;;;;8.07;1.90;;;12.10;99.90;;;;;;4994939;28;19999;-74
2022/10/16 00:16:08;;;;;;;12.30;2.65;;;11.90;99.90;;;;;;4995052;28;20053;-74
2022/10/16 00:18:34;;;;;;;14.23;2.90;;;12.30;99.90;;;;;;4995522;28;20046;-72
2022/10/16 00:21:12;;;;;;;8.75;2.08;;;11.80;99.90;;;;;;4995063;28;20043;-72
2022/10/16 00:23:38;;;;;;;7.10;2.13;;;11.80;99.90;;;;;;4994926;28;20046;-73
2022/10/16 00:26:08;;;;;;;17.00;2.80;;;12.00;99.90;;;;;;4993917;28;20055;-71
2022/10/16 00:28:35;;;;;;;12.68;2.42;;;12.50;99.90;;;;;;4993303;28;20085;-73
2022/10/16 00:31:11;;;;;;;11.50;2.10;;;11.90;99.90;;;;;;4995327;28;20054;-74
2022/10/16 00:33:38;;;;;;;8.43;2.17;;;12.10;99.90;;;;;;4995053;28;20072;-74
2022/10/16 00:36:06;;;;;;;10.75;2.40;;;11.80;99.90;;;;;;4994689;28;20762;-73
2022/10/16 00:38:32;;;;;;;10.45;2.53;;;11.90;99.90;;;;;;4994817;28;20150;-73
2022/10/16 00:40:58;;;;;;;8.38;2.50;;;12.00;99.90;;;;;;4993642;28;20507;-73
2022/10/16 00:43:35;;;;;;;7.22;2.15;;;11.90;99.90;;;;;;4993448;28;20118;-74
2022/10/16 00:46:03;;;;;;;11.25;2.40;;;12.00;99.90;;;;;;4995118;28;20125;-73
2022/10/16 00:48:29;;;;;;;8.82;2.20;;;13.50;99.90;;;;;;4993367;28;20049;-74
2022/10/16 00:50:55;;;;;;;;;;;12.10;99.90;;;;;;4994670;28;20038;-73
2022/10/16 00:53:21;;;;;;;9.55;2.30;;;12.20;99.90;;;;;;4993370;28;19944;-76
2022/10/16 00:55:47;;;;;;;8.57;2.08;;;12.10;99.90;;;;;;4994557;28;20047;-73
2022/10/16 00:58:12;;;;;;;6.88;2.30;;;12.50;99.90;;;;;;4994356;28;20050;-75
2022/10/16 01:00:38;;;;;;;9.90;2.60;;;11.70;99.90;;;;;;4994375;28;20506;-73
2022/10/16 01:03:27;;;;;;;11.15;2.67;;;11.70;99.90;;;;;;4994334;28;20058;-74
2022/10/16 01:06:19;;;;;;;12.77;3.25;;;12.60;99.90;;;;;;4993507;28;20387;-73
2022/10/16 01:09:25;;;;;;;15.80;2.83;;;11.50;99.90;;;;;;4994251;28;20079;-74
2022/10/16 01:12:05;;;;;;;6.63;2.15;;;11.60;99.90;;;;;;4994397;28;20054;-74
2022/10/16 01:14:55;;;;;;;10.18;2.35;;;11.70;99.90;;;;;;4994220;28;20038;-70
2022/10/16 01:17:45;;;;;;;15.38;2.60;;;11.50;99.90;;;;;;4994768;28;20042;-73
2022/10/16 01:20:31;;;;;;;8.18;2.20;;;11.30;99.90;;;;;;4992764;28;20081;-71
2022/10/16 01:23:06;;;;;;;9.68;2.58;;;11.60;99.90;;;;;;4994407;28;20069;-73
2022/10/16 01:25:54;;;;;;;10.48;2.58;;;11.60;99.90;;;;;;4994419;28;20113;-72
2022/10/16 01:28:28;;;;;;;10.77;2.50;;;11.30;99.90;;;;;;4992970;28;20050;-75
2022/10/16 01:31:00;;;;;;;7.25;2.10;;;11.60;99.90;;;;;;4993572;28;20050;-74
2022/10/16 01:33:43;;;;;;;6.72;2.00;;;11.80;99.90;;;;;;4994105;28;20061;-73
2022/10/16 01:36:30;;;;;;;6.97;2.28;;;11.60;99.90;;;;;;4994722;28;20042;-73
2022/10/16 01:39:00;;;;;;;12.98;2.67;;;12.00;99.90;;;;;;4993985;28;20136;-73
2022/10/16 01:41:35;;;;;;;7.30;2.58;;;12.60;99.90;;;;;;4993911;28;20090;-73
2022/10/16 01:44:25;;;;;;;8.07;2.33;;;11.80;99.90;;;;;;4994337;28;20046;-73
2022/10/16 01:46:53;;;;;;;8.10;2.10;;;12.90;99.90;;;;;;4977598;28;20051;-71
2022/10/16 01:49:22;;;;;;;7.47;2.17;;;12.10;99.90;;;;;;4993829;28;20050;-72
2022/10/16 01:51:52;;;;;;;6.72;2.20;;;12.00;99.90;;;;;;4993827;28;20055;-70
2022/10/16 01:54:19;;;;;;;6.95;2.05;;;12.20;99.90;;;;;;4993696;28;20038;-74
2022/10/16 01:56:48;;;;;;;6.22;2.25;;;12.30;99.90;;;;;;4992785;28;20133;-75
2022/10/16 01:59:17;;;;;;;9.68;1.92;;;12.40;99.90;;;;;;4992407;28;20134;-72
2022/10/16 02:01:48;;;;;;;10.27;2.10;;;12.20;99.90;;;;;;4993736;28;20057;-71
2022/10/16 02:04:34;;;;;;;9.82;2.45;;;12.60;99.90;;;;;;4993692;28;20050;-74
2022/10/16 02:07:00;;;;;;;10.48;2.53;;;12.10;99.90;;;;;;4993042;28;20042;-73
2022/10/16 02:09:26;;;;;;;8.15;2.03;;;12.30;99.90;;;;;;4994029;28;20471;-74
2022/10/16 02:11:54;;;;;;;4.93;2.10;;;12.70;99.90;;;;;;4993808;28;20133;-75
2022/10/16 02:14:22;;;;;;;15.13;2.38;;;12.30;99.90;;;;;;4993144;28;20403;-75
2022/10/16 02:16:47;;;;;;;11.05;2.72;;;12.70;99.90;;;;;;4993076;28;20512;-77
2022/10/16 02:19:15;;;;;;;6.38;2.22;;;12.80;99.90;;;;;;4992666;28;20050;-79
2022/10/16 02:21:49;;;;;;;6.28;2.33;;;12.40;99.90;;;;;;4993324;28;20414;-76
2022/10/16 02:25:12;;;;;;;6.60;2.40;;;12.70;99.90;;;;;;4993486;28;20092;-74
2022/10/16 02:27:49;;;;;;;7.25;2.45;;;12.50;99.90;;;;;;4991416;28;20050;-74
2022/10/16 02:30:39;;;;;;;9.32;3.15;;;12.40;99.90;;;;;;4991429;28;20069;-72
2022/10/16 02:33:09;;;;;;;11.07;2.78;;;12.10;99.90;;;;;;4996426;28;20050;-72
2022/10/16 02:35:36;;;;;;;9.82;3.47;;;12.50;99.90;;;;;;5000517;28;20049;-74
2022/10/16 02:38:02;;;;;;;6.30;2.92;;;12.70;99.90;;;;;;5002262;28;20073;-75
2022/10/16 02:40:28;;;;;;;;;;;12.20;99.90;;;;;;5001571;28;20050;-72
2022/10/16 02:42:55;;;;;;;8.07;2.40;;;12.40;99.90;;;;;;4999122;28;19929;-74
2022/10/16 02:45:21;;;;;;;6.15;2.97;;;12.60;99.90;;;;;;4998777;28;20043;-74
2022/10/16 02:47:47;;;;;;;8.60;3.00;;;12.30;99.90;;;;;;4999496;28;20494;-74
2022/10/16 02:50:13;;;;;;;7.40;3.33;;;10.50;99.90;;;;;;5001566;28;20051;-73
2022/10/16 02:52:39;;;;;;;9.57;3.20;;;12.10;99.90;;;;;;5001374;28;20042;-73
2022/10/16 02:55:05;;;;;;;4.30;3.00;;;12.50;99.90;;;;;;5001018;28;20054;-73
2022/10/16 02:57:31;;;;;;;6.28;3.58;;;12.30;99.90;;;;;;4996854;28;20050;-72
2022/10/16 02:59:57;;;;;;;5.85;3.10;;;12.10;99.90;;;;;;4996415;28;20046;-71
2022/10/16 03:02:23;;;;;;;9.48;3.40;;;12.20;99.90;;;;;;4996344;28;20053;-73
2022/10/16 03:04:49;;;;;;;10.93;3.92;;;12.10;99.90;;;;;;4996356;28;20050;-73
2022/10/16 03:07:15;;;;;;;9.85;4.13;;;12.70;99.90;;;;;;4996502;28;20145;-74
2022/10/16 03:09:41;;;;;;;9.43;3.40;;;12.20;99.90;;;;;;4996276;28;20049;-74
2022/10/16 03:12:07;;;;;;;11.73;3.28;;;12.30;99.90;;;;;;4996522;28;20046;-74
2022/10/16 03:14:33;;;;;;;10.68;3.15;;;12.10;99.90;;;;;;4996263;28;20043;-73
2022/10/16 03:16:58;;;;;;;13.18;3.60;;;12.30;99.90;;;;;;4996093;28;20046;-73
2022/10/16 03:19:24;;;;;;;8.02;3.30;;;12.30;99.90;;;;;;4996666;28;20076;-72
2022/10/16 03:21:50;;;;;;;10.05;3.30;;;11.80;99.90;;;;;;4996295;28;20073;-73
2022/10/16 03:24:15;;;;;;;7.50;3.05;;;12.00;99.90;;;;;;4996121;28;20042;-74
2022/10/16 03:26:41;;;;;;;6.00;2.90;;;11.80;99.90;;;;;;4995141;28;20046;-72
2022/10/16 03:29:07;;;;;;;7.10;3.35;;;12.30;99.90;;;;;;4996267;28;20046;-72
2022/10/16 03:31:32;;;;;;;8.27;3.05;;;12.00;99.90;;;;;;4996330;28;20097;-73
2022/10/16 03:33:58;;;;;;;4.95;3.15;;;11.90;99.90;;;;;;4995727;28;20145;-73
2022/10/16 03:36:24;;;;;;;7.97;2.88;;;11.90;99.90;;;;;;4994724;28;20050;-73
2022/10/16 03:38:50;;;;;;;9.02;2.90;;;11.80;99.90;;;;;;4996091;28;20097;-72
2022/10/16 03:41:15;;;;;;;5.88;3.15;;;11.50;99.90;;;;;;4995408;28;20043;-73
2022/10/16 03:43:41;;;;;;;6.57;2.55;;;11.90;99.90;;;;;;4995116;28;20054;-74
2022/10/16 03:46:07;;;;;;;8.32;2.78;;;11.80;99.90;;;;;;4995514;28;20192;-72
2022/10/16 03:48:33;;;;;;;11.63;3.67;;;11.60;99.90;;;;;;4995496;28;20108;-73
2022/10/16 03:50:58;;;;;;;6.70;2.95;;;11.50;99.90;;;;;;4996076;28;20479;-73
2022/10/16 03:53:24;;;;;;;5.53;3.00;;;11.30;99.90;;;;;;4995317;28;20049;-73
2022/10/16 03:55:50;;;;;;;8.70;3.10;;;11.00;99.90;;;;;;4995368;28;20051;-73
2022/10/16 03:58:16;;;;;;;9.88;2.50;;;11.70;99.90;;;;;;4995333;28;20395;-72
2022/10/16 04:00:42;;;;;;;;;;;11.40;99.90;;;;;;4995441;28;20050;-73
2022/10/16 04:03:09;;;;;;;7.20;2.90;;;11.30;99.90;;;;;;4994972;28;20373;-73
2022/10/16 04:05:34;;;;;;;;;;;12.00;99.90;;;;;;4996118;28;20047;-74
2022/10/16 04:08:00;;;;;;;7.22;2.95;;;11.30;99.90;;;;;;4995709;28;19928;-74
2022/10/16 04:10:26;;;;;;;8.57;2.85;;;11.40;99.90;;;;;;4995127;28;20050;-74
2022/10/16 04:12:51;;;;;;;7.25;2.75;;;11.70;99.90;;;;;;4995253;28;20101;-73
2022/10/16 04:15:17;;;;;;;8.98;2.70;;;11.80;99.90;;;;;;4993807;28;20490;-74
2022/10/16 04:17:43;;;;;;;7.88;2.80;;;11.80;99.90;;;;;;4993687;28;20038;-75
2022/10/16 04:20:08;;;;;;;5.45;2.60;;;11.80;99.90;;;;;;4994972;28;20047;-74
2022/10/16 04:22:34;;;;;;;7.38;2.90;;;11.70;99.90;;;;;;4994953;28;20439;-75
2022/10/16 04:25:00;;;;;;;4.80;2.72;;;11.80;99.90;;;;;;4994841;28;20046;-73
2022/10/16 04:27:25;;;;;;;10.25;3.20;;;11.80;99.90;;;;;;4978516;28;20054;-74
2022/10/16 04:29:51;;;;;;;10.10;3.08;;;11.60;99.90;;;;;;4995123;28;20058;-74
2022/10/16 04:32:17;;;;;;;7.68;2.80;;;12.10;99.90;;;;;;4995281;28;20081;-75
2022/10/16 04:34:43;;;;;;;6.53;2.83;;;12.20;99.90;;;;;;4993473;28;20047;-73
2022/10/16 04:37:08;;;;;;;8.10;2.83;;;12.30;99.90;;;;;;4995121;28;20173;-73
2022/10/16 04:39:34;;;;;;;9.88;2.55;;;12.10;99.90;;;;;;4993941;28;20379;-77
2022/10/16 04:42:00;;;;;;;10.20;3.08;;;12.30;99.90;;;;;;4995106;28;20371;-76
2022/10/16 04:44:25;;;;;;;5.93;2.60;;;11.90;99.90;;;;;;4994783;28;20461;-76
2022/10/16 04:46:51;;;;;;;6.30;2.05;;;12.40;99.90;;;;;;4992908;28;20133;-73
2022/10/16 04:49:17;;;;;;;7.07;2.78;;;12.30;99.90;;;;;;4993283;28;20078;-74
2022/10/16 04:51:42;;;;;;;9.10;2.45;;;12.30;99.90;;;;;;4994497;28;20154;-74
2022/10/16 04:54:09;;;;;;;6.47;2.50;;;13.00;99.90;;;;;;4994045;28;20077;-74
2022/10/16 04:56:42;;;;;;;7.10;2.75;;;12.10;99.90;;;;;;4994265;28;20513;-75
2022/10/16 04:59:08;;;;;;;5.35;2.30;;;12.40;99.90;;;;;;4993004;28;20054;-75
2022/10/16 05:01:34;;;;;;;8.07;2.95;;;12.20;99.90;;;;;;4994694;28;20064;-75
2022/10/16 05:04:00;;;;;;;8.93;2.70;;;12.50;99.90;;;;;;4994265;28;20386;-77
2022/10/16 05:06:25;;;;;;;5.65;2.13;;;12.10;99.90;;;;;;4993468;28;20089;-74
2022/10/16 05:08:51;;;;;;;10.98;2.80;;;12.30;99.90;;;;;;4993262;28;20090;-76
2022/10/16 05:11:17;;;;;;;6.13;2.35;;;13.00;99.90;;;;;;4994740;28;20050;-74
2022/10/16 05:13:42;;;;;;;5.30;1.83;;;12.10;99.90;;;;;;4994787;28;20129;-74
2022/10/16 05:16:08;;;;;;;5.55;2.13;;;12.30;99.90;;;;;;4993165;28;20438;-75
2022/10/16 05:18:34;;;;;;;5.95;2.47;;;12.20;99.90;;;;;;4992752;28;20057;-75
2022/10/16 05:20:59;;;;;;;4.55;2.33;;;12.20;99.90;;;;;;4992916;28;20042;-73
2022/10/16 05:23:25;;;;;;;9.73;2.28;;;12.20;99.90;;;;;;4993033;28;20407;-74
2022/10/16 05:25:58;;;;;;;7.07;2.30;;;12.30;99.90;;;;;;4993688;28;20444;-75
2022/10/16 05:28:25;;;;;;;7.05;3.08;;;12.30;99.90;;;;;;4993915;28;20050;-73
2022/10/16 05:30:51;;;;;;;5.95;2.60;;;12.00;99.90;;;;;;4993841;28;20042;-73
2022/10/16 05:33:19;;;;;;;9.43;2.55;;;12.30;99.90;;;;;;4993524;28;20066;-76
2022/10/16 05:35:45;;;;;;;9.02;2.00;;;11.80;99.90;;;;;;4992890;28;20058;-74
2022/10/16 05:38:10;;;;;;;8.23;2.35;;;11.80;99.90;;;;;;4993862;28;20053;-74
2022/10/16 05:40:36;;;;;;;5.60;2.30;;;12.10;99.90;;;;;;4992661;28;20058;-75
2022/10/16 05:43:01;;;;;;;6.00;2.55;;;12.60;99.90;;;;;;4993809;28;20086;-76
2022/10/16 05:45:27;;;;;;;5.25;2.53;;;11.80;99.90;;;;;;4994106;28;20050;-76
2022/10/16 05:47:53;;;;;;;3.50;2.30;;;12.20;99.90;;;;;;4994103;28;20108;-74
2022/10/16 05:50:18;;;;;;;10.63;3.17;;;12.20;99.90;;;;;;4992538;28;20125;-75
2022/10/16 05:52:44;;;;;;;4.70;2.70;;;12.30;99.90;;;;;;4993620;28;20078;-76
2022/10/16 05:55:10;;;;;;;9.70;2.72;;;11.90;99.90;;;;;;4993780;28;20093;-75
2022/10/16 05:57:35;;;;;;;11.25;2.88;;;11.80;99.90;;;;;;4993463;28;20046;-78
2022/10/16 06:00:01;;;;;;;7.35;2.90;;;12.10;99.90;;;;;;4993681;28;20054;-74
2022/10/16 06:02:27;;;;;;;6.18;2.65;;;12.00;99.90;;;;;;4993769;28;20089;-75
2022/10/16 06:04:55;;;;;;;5.80;2.60;;;12.50;99.90;;;;;;4993743;28;20058;-77
2022/10/16 06:07:22;;;;;;;7.25;3.05;;;11.60;99.90;;;;;;4997366;28;20077;-74
2022/10/16 06:09:52;;;;;;;12.95;3.10;;;11.80;99.90;;;;;;4997650;28;20072;-75
2022/10/16 06:12:18;;;;;;;8.65;2.80;;;12.10;99.90;;;;;;4979960;28;20113;-73
2022/10/16 06:14:46;;;;;;;7.30;3.15;;;11.90;99.90;;;;;;4997321;28;20145;-74
2022/10/16 06:17:13;;;;;;;9.32;3.10;;;11.60;99.90;;;;;;4997320;28;20050;-76
2022/10/16 06:19:38;;;;;;;9.65;3.92;;;12.20;99.90;;;;;;4997112;28;20046;-73
2022/10/16 06:22:04;;;;;;;5.72;3.72;;;12.00;99.90;;;;;;4996049;28;20196;-74
2022/10/16 06:24:30;;;;;;;6.47;3.78;;;11.90;99.90;;;;;;4997139;28;20050;-75
2022/10/16 06:26:55;;;;;;;13.60;4.90;;;11.90;99.90;;;;;;4997066;28;20046;-76
2022/10/16 06:29:21;;;;;;;9.18;4.13;;;11.80;99.90;;;;;;4997023;28;20475;-76
2022/10/16 06:31:47;;;;;;;9.65;3.65;;;12.30;99.90;;;;;;4996990;28;20050;-71
2022/10/16 06:34:13;;;;;;;10.57;3.78;;;12.00;99.90;;;;;;4979456;28;20050;-74
2022/10/16 06:36:39;;;;;;;9.73;3.90;;;11.90;99.90;;;;;;4997379;28;20046;-75
2022/10/16 06:39:07;;;;;;;13.32;4.65;;;11.90;99.90;;;;;;4996759;28;20133;-75
2022/10/16 06:41:33;;;;;;;8.20;3.08;;;12.00;99.90;;;;;;4996277;28;20046;-76
2022/10/16 06:43:59;;;;;;;7.22;3.45;;;11.00;99.90;;;;;;4996541;28;20105;-74
2022/10/16 06:46:25;;;;;;;11.27;4.03;;;11.90;99.90;;;;;;4995470;28;20046;-73
2022/10/16 06:48:51;;;;;;;7.45;3.20;;;12.20;99.90;;;;;;4996673;28;20082;-75
2022/10/16 06:51:19;;;;;;;12.98;3.78;;;11.90;99.90;;;;;;4996600;28;20050;-74
2022/10/16 06:53:48;;;;;;;9.95;4.03;;;12.20;99.90;;;;;;4995170;28;20126;-74
2022/10/16 06:56:20;;;;;;;11.57;3.63;;;12.10;99.90;;;;;;4996542;28;20105;-74
2022/10/16 06:58:46;;;;;;;7.75;4.25;;;12.30;99.90;;;;;;4996406;28;20058;-74
2022/10/16 07:01:13;;;;;;;8.65;4.05;;;12.10;99.90;;;;;;4996399;28;20050;-76
2022/10/16 07:03:41;;;;;;;9.35;3.70;;;12.40;99.90;;;;;;4996357;28;20047;-74
2022/10/16 07:06:09;;;;;;;12.20;4.28;;;12.30;99.90;;;;;;4996219;28;20129;-75
2022/10/16 07:08:36;;;;;;;9.98;3.72;;;12.10;99.90;;;;;;4995918;28;20502;-72
2022/10/16 07:11:11;;;;;;;9.52;3.60;;;12.40;99.90;;;;;;4995467;28;20426;-75
2022/10/16 07:13:38;;;;;;;9.88;4.85;;;12.10;99.90;;;;;;4996643;28;20112;-75
2022/10/16 07:16:08;;;;;;;7.25;3.60;;;12.20;99.90;;;;;;4996057;28;20039;-74
2022/10/16 07:18:34;;;;;;;11.85;4.00;;;12.00;99.90;;;;;;4995635;28;20541;-75
2022/10/16 07:21:17;;;;;;;10.27;4.22;;;12.00;99.90;;;;;;4995618;28;20494;-73
2022/10/16 07:23:43;;;;;;;8.10;3.20;;;11.80;99.90;;;;;;4996012;28;20050;-75
2022/10/16 07:26:10;;;;;;;9.88;3.67;;;13.40;99.90;;;;;;4995339;28;20513;-75
2022/10/16 07:28:36;;;;;;;10.18;3.30;;;12.20;99.90;;;;;;4995387;28;20056;-76
2022/10/16 07:31:04;;;;;;;7.53;3.30;;;12.20;99.90;;;;;;4995861;28;20054;-75
2022/10/16 07:33:31;;;;;;;7.60;2.67;;;12.10;99.90;;;;;;4995683;28;20046;-76
2022/10/16 07:35:57;;;;;;;8.90;2.90;;;12.50;99.90;;;;;;4994810;28;20510;-73
2022/10/16 07:38:23;;;;;;;8.10;3.22;;;12.20;99.90;;;;;;4996116;28;20048;-76
2022/10/16 07:40:56;;;;;;;11.85;3.42;;;12.60;99.90;;;;;;4994437;28;20046;-74
2022/10/16 07:43:21;;;;;;;8.77;2.92;;;13.40;99.90;;;;;;4995337;28;20396;-80
2022/10/16 07:45:49;;;;;;;11.60;3.05;;;12.70;99.90;;;;;;4994597;28;20046;-79
2022/10/16 07:48:15;;;;;;;12.65;3.30;;;12.40;99.90;;;;;;4995973;28;20050;-76
2022/10/16 07:50:41;;;;;;;7.72;2.45;;;12.80;99.90;;;;;;4994336;28;20545;-78
2022/10/16 07:53:07;;;;;;;9.40;2.55;;;12.70;99.90;;;;;;4994135;28;20042;-74
2022/10/16 07:55:33;;;;;;;9.90;2.90;;;12.70;99.90;;;;;;4995495;28;20082;-76
2022/10/16 07:57:59;;;;;;;9.52;3.03;;;12.80;99.90;;;;;;4995264;28;20046;-76
2022/10/16 08:00:24;;;;;;;9.60;3.10;;;13.10;99.90;;;;;;4994656;28;20492;-76
2022/10/16 08:02:50;;;;;;;9.50;3.35;;;13.10;99.90;;;;;;4995279;28;20505;-77
2022/10/16 08:05:15;;;;;;;10.75;3.85;;;13.20;99.90;;;;;;4995494;28;20050;-76
2022/10/16 08:07:41;;;;;;;7.25;3.63;;;13.00;99.90;;;;;;4995246;28;20043;-80
2022/10/16 08:10:15;;;;;;;10.73;3.75;;;13.40;99.90;;;;;;4994608;28;20391;-81
2022/10/16 08:12:41;;;;;;;11.50;3.78;;;13.40;99.90;;;;;;4995303;28;20049;-79
2022/10/16 08:15:07;;;;;;;9.20;4.03;;;13.50;99.90;;;;;;4995130;28;20046;-77
2022/10/16 08:17:33;;;;;;;10.52;3.40;;;13.90;99.90;;;;;;5010262;28;20061;-79
2022/10/16 08:19:58;;;;;;;8.95;3.47;;;13.90;99.90;;;;;;4995018;28;20050;-81
2022/10/16 08:22:24;;;;;;;8.32;2.90;;;13.60;99.90;;;;;;4994981;28;20050;-75
2022/10/16 08:24:50;;;;;;;9.35;3.22;;;13.40;99.90;;;;;;4994786;28;20050;-81
2022/10/16 08:27:15;;;;;;;10.93;3.25;;;13.60;99.90;;;;;;4994723;28;20046;-81
2022/10/16 08:29:41;;;;;;;9.32;3.38;;;13.80;99.90;;;;;;4993220;28;20054;-77
2022/10/16 08:32:07;;;;;;;9.63;3.50;;;13.70;99.90;;;;;;4994346;28;20133;-77
2022/10/16 08:34:33;;;;;;;10.63;2.72;;;13.40;99.90;;;;;;4994547;28;20043;-80
2022/10/16 08:36:58;;;;;;;8.13;2.67;;;13.80;99.90;;;;;;4994209;28;20159;-76
2022/10/16 08:39:24;;;;;;;6.97;2.50;;;13.80;99.90;;;;;;4994384;28;20132;-74
2022/10/16 08:41:58;;;;;;;7.82;2.83;;;14.00;99.90;;;;;;4993981;28;20104;-82
2022/10/16 08:44:42;;;;;;;7.40;2.50;;;13.90;99.90;;;;;;4993282;28;20046;-79
2022/10/16 08:47:22;;;;;;;7.22;2.63;;;14.00;99.90;;;;;;4993257;28;20046;-78
2022/10/16 08:50:01;;;;;;;6.68;2.53;;;14.40;99.90;;;;;;4995124;28;20097;-81
2022/10/16 08:52:35;;;;;;;7.90;2.33;;;14.00;99.90;;;;;;4978183;28;20053;-80
2022/10/16 08:55:01;;;;;;;8.20;2.30;;;14.10;99.90;;;;;;4994373;28;20046;-81
2022/10/16 08:57:28;;;;;;;7.70;2.22;;;13.80;99.90;;;;;;4994287;28;20046;-78
2022/10/16 09:00:00;;;;;;;5.75;2.47;;;14.10;99.90;;;;;;4994542;28;20128;-76
2022/10/16 09:02:34;;;;;;;9.65;2.38;;;14.10;99.90;;;;;;4994325;28;20471;-81
2022/10/16 09:04:59;;;;;;;9.02;2.65;;;14.20;99.90;;;;;;4994260;28;20046;-80
2022/10/16 09:07:32;;;;;;;5.90;2.10;;;14.20;99.90;;;;;;4994977;28;20482;-78
2022/10/16 09:10:30;;;;;;;22.77;3.47;;;14.50;99.90;;;;;;4994339;28;20526;-80
2022/10/16 09:13:21;;;;;;;9.70;2.65;;;14.60;99.90;;;;;;4994436;28;20538;-82
2022/10/16 09:16:27;;;;;;;13.93;2.80;;;14.30;99.90;;;;;;4994037;28;20573;-83
2022/10/16 09:19:12;;;;;;;9.68;2.90;;;14.50;99.90;;;;;;4994214;28;20089;-80
2022/10/16 09:21:45;;;;;;;9.18;2.85;;;14.60;99.90;;;;;;4993228;28;20054;-79
2022/10/16 09:24:14;;;;;;;9.18;2.55;;;15.00;99.90;;;;;;4994034;28;20061;-81
2022/10/16 09:26:40;;;;;;;10.45;3.03;;;15.00;99.90;;;;;;4994112;28;20073;-76
2022/10/16 09:29:06;;;;;;;13.35;3.10;;;15.10;99.90;;;;;;4994085;28;20085;-82
2022/10/16 09:31:36;;;;;;;18.20;3.78;;;15.00;99.90;;;;;;4992775;28;20498;-79
2022/10/16 09:34:06;;;;;;;15.60;3.20;;;15.20;99.90;;;;;;4994313;28;20121;-81
2022/10/16 09:36:41;;;;;;;12.98;2.92;;;14.70;99.90;;;;;;4994016;28;20054;-78
2022/10/16 09:39:09;;;;;;;15.73;3.33;;;15.30;99.90;;;;;;4994200;28;20069;-76
2022/10/16 09:41:38;;;;;;;11.40;2.60;;;15.20;99.90;;;;;;4996914;28;20124;-80
2022/10/16 09:44:15;;;;;;;12.00;2.80;;;15.30;99.90;;;;;;4997560;28;20516;-79
2022/10/16 09:46:41;;;;;;;15.25;2.92;;;15.20;99.90;;;;;;4997823;28;20046;-78
2022/10/16 09:49:24;;;;;;;15.73;2.85;;;15.20;99.90;;;;;;4998312;28;20129;-77
2022/10/16 09:51:51;;;;;;;16.02;3.17;;;15.10;99.90;;;;;;4998177;28;20130;-80
2022/10/16 09:54:20;;;;;;;15.65;2.33;;;15.70;99.90;;;;;;4997778;28;20046;-80
2022/10/16 09:56:51;;;;;;;15.40;3.20;;;15.60;99.90;;;;;;4997704;28;20042;-79
2022/10/16 09:59:19;;;;;;;12.98;3.70;;;15.70;99.90;;;;;;4981333;28;20133;-80
2022/10/16 10:01:50;;;;;;;19.00;3.40;;;16.00;99.90;;;;;;4998100;28;20046;-81
2022/10/16 10:04:20;;;;;;;13.50;2.60;;;15.60;99.90;;;;;;4997718;28;20047;-76
2022/10/16 10:06:48;;;;;;;11.82;2.58;;;16.10;99.90;;;;;;4997798;28;20056;-80
2022/10/16 10:09:21;;;;;;;13.45;3.20;;;16.30;99.90;;;;;;4998030;28;20053;-77
2022/10/16 10:12:02;;;;;;;15.02;2.70;;;15.60;99.90;;;;;;4998074;28;20387;-77
2022/10/16 10:14:40;;;;;;;12.40;2.50;;;15.90;99.90;;;;;;4997274;28;20046;-79
2022/10/16 10:17:06;;;;;;;20.35;2.72;;;15.70;99.90;;;;;;4997265;28;20054;-77
2022/10/16 10:19:49;;;;;;;;;;;15.70;99.90;;;;;;4997816;28;20050;-76
2022/10/16 10:22:23;;;;;;;12.48;2.70;;;15.80;99.90;;;;;;4997220;28;20366;-77
2022/10/16 10:25:18;;;;;;;11.45;2.40;;;15.50;99.90;;;;;;4997421;28;20042;-77
2022/10/16 10:28:37;;;;;;;14.98;2.30;;;15.70;99.90;;;;;;4995896;28;20086;-75
2022/10/16 10:31:11;;;;;;;13.75;3.22;;;15.80;99.90;;;;;;4994843;28;20054;-81
2022/10/16 10:33:59;;;;;;;14.93;2.33;;;16.20;99.90;;;;;;4997362;28;20144;-81
2022/10/16 10:36:37;;;;;;;9.95;2.53;;;16.20;99.90;;;;;;4997495;28;20050;-79
2022/10/16 10:39:30;;;;;;;9.07;2.33;;;15.80;99.90;;;;;;4996624;28;20058;-75
2022/10/16 10:42:14;;;;;;;14.70;2.60;;;15.80;99.90;;;;;;4996636;28;20137;-75
2022/10/16 10:44:54;;;;;;;11.10;2.72;;;15.70;99.90;;;;;;4995904;28;20181;-78
2022/10/16 10:47:36;;;;;;;17.85;3.47;;;15.70;99.90;;;;;;4997656;28;20387;-76
2022/10/16 10:50:24;;;;;;;17.92;2.72;;;15.50;99.90;;;;;;4995822;28;20046;-78
2022/10/16 10:52:58;;;;;;;11.85;2.17;;;15.60;99.90;;;;;;4995228;28;20097;-76
2022/10/16 10:55:38;;;;;;;13.65;3.40;;;15.70;99.90;;;;;;4996445;28;20058;-77
2022/10/16 10:58:10;;;;;;;13.38;2.42;;;15.60;99.90;;;;;;4996448;28;20379;-73
2022/10/16 11:00:44;;;;;;;18.30;3.17;;;15.40;99.90;;;;;;4996492;28;20046;-73
2022/10/16 11:03:22;;;;;;;17.90;3.20;;;15.80;99.90;;;;;;4996571;28;20046;-73
2022/10/16 11:05:56;;;;;;;21.90;2.78;;;16.00;99.90;;;;;;4996933;28;20050;-75
2022/10/16 11:08:56;;;;;;;21.83;3.38;;;16.10;99.90;;;;;;4996451;28;20058;-71
2022/10/16 11:11:49;;;;;;;21.88;3.67;;;16.00;99.90;;;;;;4996445;28;20138;-72
2022/10/16 11:14:28;;;;;;;17.73;2.72;;;16.00;99.90;;;;;;4996071;28;20452;-75
2022/10/16 11:17:04;;;;;;;15.38;3.17;;;16.00;99.90;;;;;;4996229;28;20502;-75
2022/10/16 11:19:46;;;;;;;21.38;3.75;;;15.70;99.90;;;;;;4996634;28;20133;-74
2022/10/16 11:22:27;;;;;;;17.30;3.30;;;15.70;99.90;;;;;;4996155;28;20553;-75
2022/10/16 11:25:03;;;;;;;15.73;2.85;;;15.50;99.90;;;;;;4996155;28;20042;-77
2022/10/16 11:27:47;;;;;;;22.38;3.38;;;15.80;99.90;;;;;;4996442;28;20080;-76
2022/10/16 11:30:23;;;;;;;20.80;2.70;;;15.80;99.90;;;;;;4995684;28;20524;-74
2022/10/16 11:33:07;;;;;;;13.93;2.40;;;16.00;99.90;;;;;;4996035;28;20060;-76
2022/10/16 11:35:42;;;;;;;18.27;2.63;;;15.70;99.90;;;;;;4995630;28;20426;-74
2022/10/16 11:38:34;;;;;;;15.70;2.53;;;15.90;99.90;;;;;;4995797;28;20090;-81
2022/10/16 11:41:29;;;;;;;17.08;2.50;;;15.90;99.90;;;;;;4995020;28;20058;-74
2022/10/16 11:44:09;;;;;;;12.25;3.05;;;16.20;99.90;;;;;;4995534;28;20514;-75
2022/10/16 11:46:40;;;;;;;10.95;1.92;;;16.10;99.90;;;;;;4995707;28;20483;-78
2022/10/16 11:49:25;;;;;;;10.45;2.13;;;16.00;99.90;;;;;;4996451;28;20050;-75
2022/10/16 11:52:08;;;;;;;11.20;1.80;;;15.80;99.90;;;;;;4995278;28;20551;-75
2022/10/16 11:55:17;;;;;;;19.92;2.88;;;15.60;99.90;;;;;;4995495;28;20058;-77
2022/10/16 11:57:53;;;;;;;14.05;2.60;;;16.00;99.90;;;;;;4993279;28;20085;-75
2022/10/16 12:00:30;;;;;;;10.15;2.30;;;15.70;99.90;;;;;;4995405;28;20062;-76
2022/10/16 12:03:00;;;;;;;11.00;2.20;;;16.30;99.90;;;;;;4994332;28;20092;-75
2022/10/16 12:05:52;;;;;;;12.98;1.85;;;15.80;99.90;;;;;;4994255;28;20046;-76
2022/10/16 12:08:18;;;;;;;13.65;2.88;;;16.00;99.90;;;;;;4995151;28;20046;-77
2022/10/16 12:10:47;;;;;;;13.32;3.08;;;15.90;99.90;;;;;;4995068;28;20050;-76
2022/10/16 12:13:40;;;;;;;13.20;2.83;;;16.00;99.90;;;;;;4995751;28;20126;-75
2022/10/16 12:16:25;;;;;;;11.98;1.92;;;16.30;99.90;;;;;;4994465;28;20089;-77
2022/10/16 12:19:10;;;;;;;13.32;1.77;;;16.00;99.90;;;;;;4995279;28;20514;-75
2022/10/16 12:21:36;;;;;;;13.35;2.03;;;16.10;99.90;;;;;;4994815;28;20380;-78
2022/10/16 12:24:04;;;;;;;;;;;16.30;99.90;;;;;;4995452;28;20121;-76
2022/10/16 12:26:33;;;;;;;7.57;1.92;;;16.30;99.90;;;;;;4993533;28;19972;-75
2022/10/16 12:29:34;;;;;;;13.20;2.60;;;16.20;99.90;;;;;;4994633;28;20419;-76
2022/10/16 12:32:02;;;;;;;14.82;2.08;;;16.50;99.90;;;;;;4995621;28;20405;-75
2022/10/16 12:34:32;;;;;;;12.82;2.03;;;16.30;99.90;;;;;;4994857;28;20046;-75
2022/10/16 12:37:29;;;;;;;14.80;2.05;;;16.60;99.90;;;;;;4994812;28;20050;-79
2022/10/16 12:39:56;;;;;;;10.88;1.98;;;16.60;99.90;;;;;;4994348;28;20065;-75
2022/10/16 12:42:22;;;;;;;11.25;2.72;;;16.70;99.90;;;;;;4994389;28;20526;-78
2022/10/16 12:44:47;;;;;;;;;;;16.90;99.90;;;;;;4995027;28;20054;-78
2022/10/16 12:47:29;;;;;;;11.57;2.20;;;17.00;99.90;;;;;;4995095;28;19922;-75
2022/10/16 12:49:55;;;;;;;13.13;2.47;;;17.20;99.90;;;;;;4994889;28;20065;-75
2022/10/16 12:52:48;;;;;;;9.50;1.75;;;17.00;99.90;;;;;;4993651;28;20050;-76
2022/10/16 12:55:18;;;;;;;14.25;2.22;;;17.10;99.90;;;;;;4993898;28;20065;-80
2022/10/16 12:58:02;;;;;;;12.30;2.15;;;17.00;99.90;;;;;;4994208;28;20506;-75
2022/10/16 13:01:06;;;;;;;8.63;1.83;;;17.20;99.90;;;;;;4995040;28;20054;-79
2022/10/16 13:04:02;;;;;;;11.93;2.33;;;15.10;99.90;;;;;;4994835;28;20047;-74
2022/10/16 13:06:43;;;;;;;13.98;2.60;;;16.70;99.90;;;;;;4994910;28;20139;-75
2022/10/16 13:09:42;;;;;;;14.18;1.80;;;16.70;99.90;;;;;;4994780;28;20490;-75